Time;durP1;ratioP1;P1;durP2;ratioP2;P2;SDS_P1;SDS_P2;PMS_P1;PMS_P2;Temp;Humidity;BMP_temperature;BMP_pressure;BME280_temperature;BME280_humidity;BME280_pressure;Samples;Min_cycle;Max_cycle;Signal;HPM_P1;HPM_P2
2023/04/21 03:01:03;;;;;;;51.00;19.67;;;5.40;99.90;;;;;;5691969;23;20228;-72
2023/04/21 03:03:30;;;;;;;152.57;21.83;;;5.40;99.90;;;;;;4991227;28;20177;-72
2023/04/21 03:05:59;;;;;;;49.97;18.20;;;5.40;99.90;;;;;;4988858;28;20180;-71
2023/04/21 03:08:25;;;;;;;46.73;19.70;;;5.30;99.90;;;;;;4991459;28;20223;-72
2023/04/21 03:10:50;;;;;;;72.50;21.00;;;5.30;99.90;;;;;;4987554;28;20197;-72
2023/04/21 03:13:16;;;;;;;74.30;20.70;;;5.40;99.90;;;;;;4972083;28;20559;-71
2023/04/21 03:15:42;;;;;;;103.53;18.80;;;5.40;99.90;;;;;;5002386;23;20305;-71
2023/04/21 03:18:08;;;;;;;91.87;18.13;;;5.40;99.90;;;;;;4990564;28;20207;-71
2023/04/21 03:20:34;;;;;;;66.00;19.00;;;5.40;99.90;;;;;;4991704;28;20601;-71
2023/04/21 03:23:00;;;;;;;80.60;21.47;;;5.20;99.90;;;;;;4992786;28;20231;-71
2023/04/21 03:28:08;;;;;;;86.13;19.70;;;5.10;99.90;;;;;;5313363;23;20243;-71
2023/04/21 03:30:33;;;;;;;161.63;41.97;;;5.00;99.90;;;;;;4990521;28;20188;-71
2023/04/21 03:32:59;;;;;;;199.37;36.50;;;4.90;99.90;;;;;;4992628;28;20189;-71
2023/04/21 03:35:25;;;;;;;169.20;30.60;;;4.90;99.90;;;;;;5010332;28;20250;-71
2023/04/21 03:37:51;;;;;;;163.27;90.23;;;4.90;99.90;;;;;;5013193;28;20172;-71
2023/04/21 03:40:17;;;;;;;127.37;70.10;;;4.90;99.90;;;;;;4993835;28;20254;-71
2023/04/21 03:42:43;;;;;;;109.23;42.77;;;4.90;99.90;;;;;;4995013;28;20188;-71
2023/04/21 03:45:09;;;;;;;133.60;44.47;;;4.90;99.90;;;;;;4994738;28;20207;-71
2023/04/21 03:47:36;;;;;;;130.97;72.93;;;5.00;99.90;;;;;;4994447;28;20186;-70
2023/04/21 03:50:05;;;;;;;101.73;85.37;;;5.10;99.90;;;;;;4976966;28;20245;-71
2023/04/21 03:52:31;;;;;;;135.60;81.10;;;5.10;99.90;;;;;;4975516;28;20235;-72
2023/04/21 03:54:57;;;;;;;128.00;25.27;;;5.10;99.90;;;;;;4975209;28;20225;-72
2023/04/21 03:57:23;;;;;;;94.00;19.53;;;5.10;99.90;;;;;;4974984;28;20189;-72
2023/04/21 03:59:49;;;;;;;92.73;22.50;;;5.10;99.90;;;;;;4974429;28;20181;-72
2023/04/21 04:02:15;;;;;;;144.50;105.63;;;5.00;99.90;;;;;;4975362;28;20276;-72
2023/04/21 04:07:22;;;;;;;79.07;29.80;;;4.90;99.90;;;;;;5098914;23;20243;-72
2023/04/21 04:09:48;;;;;;;80.23;70.30;;;4.90;99.90;;;;;;4992695;28;20220;-71
2023/04/21 04:12:14;;;;;;;104.60;73.53;;;5.00;99.90;;;;;;4994473;28;20264;-71
2023/04/21 04:14:40;;;;;;;96.77;82.93;;;5.00;99.90;;;;;;4994438;28;20276;-72
2023/04/21 04:17:06;;;;;;;89.73;46.00;;;5.10;99.90;;;;;;4990871;28;20241;-70
2023/04/21 04:19:35;;;;;;;61.03;19.17;;;5.10;99.90;;;;;;4974792;28;20339;-73
2023/04/21 04:22:01;;;;;;;111.73;20.03;;;5.10;99.90;;;;;;4975015;28;20189;-73
2023/04/21 04:24:27;;;;;;;66.33;17.93;;;5.10;99.90;;;;;;4974935;28;20189;-73
2023/04/21 04:26:56;;;;;;;107.00;18.83;;;5.10;99.90;;;;;;4973786;28;20197;-70
2023/04/21 04:29:22;;;;;;;84.63;22.73;;;5.10;99.90;;;;;;4994863;28;20220;-71
2023/04/21 04:31:49;;;;;;;81.43;23.03;;;5.10;99.90;;;;;;4994273;28;20191;-72
2023/04/21 04:34:16;;;;;;;78.20;25.77;;;5.00;99.90;;;;;;4994115;28;20184;-71
2023/04/21 04:36:42;;;;;;;76.00;18.00;;;5.10;99.90;;;;;;4992413;28;20203;-72
2023/04/21 04:39:09;;;;;;;70.20;18.00;;;5.00;99.90;;;;;;4974209;28;20189;-71
2023/04/21 04:41:36;;;;;;;124.40;26.50;;;5.00;99.90;;;;;;4971022;28;20228;-70
2023/04/21 04:44:04;;;;;;;203.20;184.70;;;5.00;99.90;;;;;;4970301;28;20189;-70
2023/04/21 04:46:32;;;;;;;164.37;111.57;;;4.90;99.90;;;;;;4967435;28;20212;-71
2023/04/21 04:49:00;;;;;;;96.30;84.03;;;4.80;99.90;;;;;;5466980;23;20259;-71
2023/04/21 04:51:26;;;;;;;121.90;57.93;;;4.80;99.90;;;;;;4975477;28;20181;-71
2023/04/21 04:53:52;;;;;;;62.03;39.30;;;4.80;99.90;;;;;;4972685;28;20185;-72
2023/04/21 04:56:17;;;;;;;50.40;40.73;;;4.80;99.90;;;;;;4969596;28;20519;-72
2023/04/21 04:58:45;;;;;;;77.37;54.50;;;4.80;99.90;;;;;;4970562;28;20606;-70
2023/04/21 05:01:15;;;;;;;88.13;52.30;;;4.80;99.90;;;;;;4962128;28;20252;-70
2023/04/21 05:03:42;;;;;;;67.13;44.77;;;4.80;99.90;;;;;;4965284;28;20216;-74
2023/04/21 05:06:08;;;;;;;67.03;38.87;;;4.90;99.90;;;;;;4973399;28;20744;-72
2023/04/21 05:08:34;;;;;;;81.43;38.93;;;5.00;99.90;;;;;;4971112;28;20299;-72
2023/04/21 05:11:00;;;;;;;77.97;69.40;;;5.10;99.90;;;;;;4965575;28;20265;-72
2023/04/21 05:13:26;;;;;;;78.90;57.03;;;5.10;99.90;;;;;;4958061;29;20198;-71
2023/04/21 05:16:01;;;;;;;68.47;61.43;;;5.20;99.90;;;;;;4956402;28;20202;-73
2023/04/21 05:18:27;;;;;;;108.37;100.90;;;5.20;99.90;;;;;;4954895;29;20188;-72
2023/04/21 05:20:53;;;;;;;112.30;103.53;;;5.30;99.90;;;;;;4963352;28;20546;-72
2023/04/21 05:23:19;;;;;;;123.33;114.57;;;5.30;99.90;;;;;;4973443;28;20181;-71
2023/04/21 05:25:45;;;;;;;123.10;113.80;;;5.40;99.90;;;;;;4972458;28;20574;-72
2023/04/21 05:28:11;;;;;;;111.83;103.93;;;5.50;99.90;;;;;;4972336;28;20189;-71
2023/04/21 05:30:37;;;;;;;101.93;95.23;;;5.50;99.90;;;;;;4965277;28;20180;-72
2023/04/21 05:33:03;;;;;;;31.73;22.20;;;5.60;99.90;;;;;;4954598;28;20186;-72
2023/04/21 05:35:32;;;;;;;25.03;19.70;;;5.60;99.90;;;;;;4954141;28;20229;-72
2023/04/21 05:37:58;;;;;;;21.80;17.57;;;5.60;99.90;;;;;;4953846;28;20197;-72
2023/04/21 05:40:24;;;;;;;35.07;19.63;;;5.60;99.90;;;;;;4965949;28;20177;-74
2023/04/21 05:42:50;;;;;;;27.23;19.57;;;5.60;99.90;;;;;;4973597;28;20272;-72
2023/04/21 05:45:15;;;;;;;26.80;19.00;;;5.70;99.90;;;;;;4971901;28;20267;-72
2023/04/21 05:47:41;;;;;;;28.97;19.73;;;5.60;99.90;;;;;;4973082;28;20309;-72
2023/04/21 05:50:07;;;;;;;27.07;19.07;;;5.60;99.90;;;;;;4970347;28;20263;-73
2023/04/21 05:52:36;;;;;;;25.20;19.80;;;5.70;99.90;;;;;;4952378;29;20181;-72
2023/04/21 05:55:02;;;;;;;25.30;19.47;;;5.70;99.90;;;;;;4953527;28;20204;-72
2023/04/21 05:57:28;;;;;;;28.90;20.17;;;5.70;99.90;;;;;;4953219;28;20653;-71
2023/04/21 05:59:53;;;;;;;28.07;17.70;;;5.80;99.90;;;;;;4952499;28;20197;-71
2023/04/21 06:02:19;;;;;;;29.47;20.40;;;5.70;99.90;;;;;;4973015;28;20192;-72
2023/04/21 06:04:45;;;;;;;25.63;20.17;;;5.70;99.90;;;;;;4972592;28;20188;-73
2023/04/21 06:07:12;;;;;;;23.37;17.73;;;5.80;99.90;;;;;;4971938;28;20267;-73
2023/04/21 06:09:41;;;;;;;25.30;19.67;;;5.80;99.90;;;;;;4971492;28;20295;-72
2023/04/21 06:12:07;;;;;;;26.53;19.13;;;5.90;99.90;;;;;;4953946;28;20189;-72
2023/04/21 06:14:33;;;;;;;26.60;18.73;;;6.00;99.90;;;;;;4953201;28;20189;-72
2023/04/21 06:16:58;;;;;;;26.67;20.53;;;6.00;99.90;;;;;;4951562;29;20194;-72
2023/04/21 06:19:24;;;;;;;25.83;20.10;;;6.00;99.90;;;;;;4953442;28;20184;-72
2023/04/21 06:21:50;;;;;;;27.97;20.87;;;6.10;99.90;;;;;;4967822;28;20185;-73
2023/04/21 06:24:23;;;;;;;29.70;20.00;;;6.20;99.90;;;;;;4970771;28;20189;-72
2023/04/21 06:26:52;;;;;;;27.73;18.40;;;6.30;99.90;;;;;;4972047;28;20216;-74
2023/04/21 06:29:19;;;;;;;28.17;25.17;;;6.20;99.90;;;;;;4972359;28;20692;-73
2023/04/21 06:31:45;;;;;;;28.27;24.83;;;6.20;99.90;;;;;;4975908;28;20277;-73
2023/04/21 06:34:11;;;;;;;41.70;37.93;;;6.20;99.90;;;;;;4971387;28;20566;-75
2023/04/21 06:36:37;;;;;;;48.70;44.70;;;6.20;99.90;;;;;;4973244;28;20209;-73
2023/04/21 06:39:03;;;;;;;29.60;26.47;;;6.20;99.90;;;;;;4972118;28;20698;-73
2023/04/21 06:41:29;;;;;;;27.27;23.87;;;6.30;99.90;;;;;;4971765;28;20228;-73
2023/04/21 06:43:55;;;;;;;33.93;30.47;;;6.40;99.90;;;;;;4972054;28;20181;-72
2023/04/21 06:46:21;;;;;;;38.87;35.13;;;6.50;99.90;;;;;;4971523;28;20236;-73
2023/04/21 06:48:47;;;;;;;45.37;41.27;;;6.50;99.90;;;;;;4975904;28;20213;-72
2023/04/21 06:51:13;;;;;;;40.67;36.93;;;6.60;99.90;;;;;;4968815;28;20610;-73
2023/04/21 06:53:39;;;;;;;33.73;30.57;;;6.50;99.90;;;;;;4971345;28;20267;-71
2023/04/21 06:58:40;;;;;;;35.53;30.47;;;6.40;99.90;;;;;;5396578;23;20258;-71
2023/04/21 07:01:06;;;;;;;31.87;27.40;;;6.60;99.90;;;;;;4974674;28;20575;-72
2023/04/21 07:03:32;;;;;;;48.50;43.80;;;6.80;99.90;;;;;;4972139;28;20657;-70
2023/04/21 07:05:58;;;;;;;51.23;46.43;;;7.20;99.90;;;;;;4970004;28;20207;-71
2023/04/21 07:08:24;;;;;;;36.17;32.47;;;7.60;99.90;;;;;;4971552;28;20673;-71
2023/04/21 07:10:50;;;;;;;43.80;40.23;;;8.10;99.90;;;;;;5014084;23;20309;-70
2023/04/21 07:13:16;;;;;;;23.73;21.43;;;8.20;99.90;;;;;;4995534;28;20212;-71
2023/04/21 07:15:42;;;;;;;25.00;22.70;;;8.30;99.90;;;;;;4995568;28;20613;-71
2023/04/21 07:18:08;;;;;;;20.70;18.63;;;8.30;99.90;;;;;;4994809;28;20184;-71
2023/04/21 07:20:34;;;;;;;24.37;22.10;;;8.40;99.90;;;;;;4994286;28;20721;-71
2023/04/21 07:22:59;;;;;;;25.13;22.83;;;8.40;99.90;;;;;;4994879;28;20571;-71
2023/04/21 07:25:25;;;;;;;29.23;26.93;;;8.50;99.90;;;;;;4995716;28;20184;-71
2023/04/21 07:27:51;;;;;;;29.57;27.03;;;8.40;99.90;;;;;;4979687;28;20560;-71
2023/04/21 07:30:17;;;;;;;26.80;24.57;;;8.40;99.90;;;;;;4987086;28;20661;-71
2023/04/21 07:32:43;;;;;;;25.73;23.10;;;8.50;99.90;;;;;;4994205;28;20275;-71
2023/04/21 07:35:08;;;;;;;26.27;23.97;;;8.50;99.90;;;;;;4994517;28;20214;-71
2023/04/21 07:37:34;;;;;;;25.77;23.40;;;8.60;99.90;;;;;;4993546;28;20191;-71
2023/04/21 07:40:00;;;;;;;25.47;23.17;;;8.90;99.90;;;;;;4992534;28;20180;-71
2023/04/21 07:42:26;;;;;;;15.20;13.60;;;9.10;99.90;;;;;;4992647;28;20204;-71
2023/04/21 07:44:52;;;;;;;16.87;14.80;;;9.10;99.90;;;;;;4994586;28;20687;-71
2023/04/21 07:47:18;;;;;;;16.20;13.97;;;9.00;99.90;;;;;;4994480;28;20180;-71
2023/04/21 07:49:44;;;;;;;16.70;14.63;;;9.00;99.90;;;;;;4987799;28;20204;-70
2023/04/21 07:52:10;;;;;;;17.97;15.60;;;8.90;99.90;;;;;;4974124;28;20207;-70
2023/04/21 07:54:35;;;;;;;19.97;17.00;;;9.00;99.90;;;;;;4979696;28;20177;-71
2023/04/21 07:57:01;;;;;;;17.07;15.27;;;9.10;99.90;;;;;;4982043;28;20178;-71
2023/04/21 07:59:27;;;;;;;18.20;15.97;;;9.20;99.90;;;;;;4978961;28;20641;-70
2023/04/21 08:01:53;;;;;;;19.47;16.40;;;9.20;99.90;;;;;;4994898;28;20238;-70
2023/04/21 08:04:19;;;;;;;21.57;17.50;;;9.20;99.90;;;;;;4994578;28;20568;-71
2023/04/21 08:06:44;;;;;;;19.47;16.30;;;9.40;99.90;;;;;;4994446;28;20529;-71
2023/04/21 08:09:10;;;;;;;19.73;17.47;;;9.60;99.90;;;;;;4992341;28;20303;-70
2023/04/21 08:11:36;;;;;;;18.70;14.77;;;9.80;99.90;;;;;;4974456;28;20217;-70
2023/04/21 08:14:02;;;;;;;22.73;20.63;;;10.00;99.90;;;;;;4975438;28;20181;-71
2023/04/21 08:16:28;;;;;;;21.63;19.73;;;9.90;99.90;;;;;;4975186;28;20637;-70
2023/04/21 08:18:54;;;;;;;22.43;20.27;;;9.80;99.90;;;;;;4974380;28;20185;-71
2023/04/21 08:21:20;;;;;;;24.27;22.07;;;9.70;99.90;;;;;;4993271;28;20204;-71
2023/04/21 08:23:45;;;;;;;24.50;22.23;;;9.60;99.90;;;;;;4992810;28;20607;-71
2023/04/21 08:26:12;;;;;;;23.80;21.43;;;9.60;99.90;;;;;;4994233;28;20195;-71
2023/04/21 08:28:37;;;;;;;23.47;21.03;;;9.70;99.90;;;;;;4992990;28;20207;-71
2023/04/21 08:31:04;;;;;;;23.93;21.83;;;9.80;99.90;;;;;;4978559;28;20204;-71
2023/04/21 08:33:29;;;;;;;25.03;22.83;;;9.80;99.90;;;;;;4973586;28;20207;-71
2023/04/21 08:35:55;;;;;;;22.17;20.13;;;10.10;99.90;;;;;;5466925;23;20228;-71
2023/04/21 08:38:21;;;;;;;24.53;22.30;;;10.40;99.90;;;;;;4991630;28;20231;-72
2023/04/21 08:40:48;;;;;;;28.23;26.13;;;10.60;99.90;;;;;;4991066;28;20192;-71
2023/04/21 08:43:14;;;;;;;14.10;12.67;;;10.80;99.90;;;;;;4993737;28;20180;-71
2023/04/21 08:45:40;;;;;;;16.23;14.57;;;10.80;99.90;;;;;;4993632;28;20180;-71
2023/04/21 08:48:08;;;;;;;17.00;15.50;;;11.10;99.90;;;;;;4981529;28;20653;-71
2023/04/21 08:50:36;;;;;;;18.30;16.70;;;11.90;99.90;;;;;;5006848;23;20228;-70
2023/04/21 08:53:02;;;;;;;15.17;13.87;;;12.60;99.90;;;;;;4992995;28;20184;-69
2023/04/21 08:55:29;;;;;;;11.43;10.50;;;13.80;99.90;;;;;;4993256;28;20177;-69
2023/04/21 08:57:55;;;;;;;10.47;9.53;;;14.80;99.90;;;;;;4992000;28;20177;-70
2023/04/21 09:00:21;;;;;;;10.50;9.53;;;15.30;99.90;;;;;;4992055;28;20656;-69
2023/04/21 09:02:58;;;;;;;10.77;9.93;;;15.20;99.90;;;;;;4993874;28;20242;-69
2023/04/21 09:05:33;;;;;;;17.33;16.13;;;15.30;99.90;;;;;;4991498;28;20191;-69
2023/04/21 09:08:13;;;;;;;25.87;24.27;;;15.70;99.90;;;;;;4981301;28;20606;-70
2023/04/21 09:10:48;;;;;;;51.70;48.83;;;15.70;99.90;;;;;;4973246;28;20220;-70
2023/04/21 09:13:14;;;;;;;71.93;68.13;;;16.00;99.90;;;;;;4973668;28;20191;-69
2023/04/21 09:15:42;;;;;;;79.20;75.03;;;15.80;99.90;;;;;;4973509;28;20177;-70
2023/04/21 09:18:19;;;;;;;62.40;59.03;;;15.80;99.90;;;;;;4983450;28;20190;-70
2023/04/21 09:20:47;;;;;;;48.50;45.77;;;16.50;99.90;;;;;;4992843;28;20216;-71
2023/04/21 09:23:13;;;;;;;20.20;18.80;;;17.00;99.90;;;;;;4991206;28;21006;-70
2023/04/21 09:25:40;;;;;;;24.63;23.03;;;17.10;99.90;;;;;;4992198;28;20239;-70
2023/04/21 09:28:08;;;;;;;17.63;16.43;;;17.20;99.90;;;;;;4981711;28;20276;-71
2023/04/21 09:30:36;;;;;;;15.80;14.60;;;17.20;99.90;;;;;;4972618;28;20578;-70
2023/04/21 09:33:02;;;;;;;26.97;25.20;;;16.70;99.90;;;;;;4972716;28;20173;-70
2023/04/21 09:35:29;;;;;;;28.83;27.00;;;16.60;99.90;;;;;;4972866;28;20208;-70
2023/04/21 09:37:54;;;;;;;27.67;25.87;;;16.70;99.90;;;;;;4981387;28;20308;-70
2023/04/21 09:42:56;;;;;;;25.70;24.10;;;15.90;99.90;;;;;;5026007;23;20246;-70
2023/04/21 09:45:26;;;;;;;27.73;26.03;;;16.10;99.90;;;;;;4992301;28;20685;-69
2023/04/21 09:47:55;;;;;;;27.77;26.07;;;16.00;99.90;;;;;;4991720;28;20177;-68
2023/04/21 09:50:22;;;;;;;27.23;25.53;;;16.00;99.90;;;;;;4992239;28;20223;-69
2023/04/21 09:52:51;;;;;;;29.53;27.73;;;16.40;99.90;;;;;;4987247;28;20654;-70
2023/04/21 09:55:18;;;;;;;22.47;21.03;;;16.80;99.90;;;;;;5006898;23;20232;-71
2023/04/21 09:57:49;;;;;;;13.27;12.27;;;17.40;99.90;;;;;;4992072;28;20239;-72
2023/04/21 10:00:17;;;;;;;13.93;12.90;;;18.30;99.90;;;;;;4992335;28;20188;-71
2023/04/21 10:02:51;;;;;;;12.23;11.23;;;18.40;99.90;;;;;;4991428;28;20188;-71
2023/04/21 10:05:17;;;;;;;18.40;17.00;;;19.20;99.90;;;;;;4992004;28;20204;-70
2023/04/21 10:07:47;;;;;;;16.83;15.63;;;19.80;99.90;;;;;;4992041;28;20180;-69
2023/04/21 10:10:26;;;;;;;12.17;11.27;;;20.30;99.90;;;;;;4991750;28;20685;-69
2023/04/21 10:12:53;;;;;;;11.17;10.23;;;20.80;99.90;;;;;;4985977;28;20677;-69
2023/04/21 10:15:44;;;;;;;11.10;10.30;;;20.00;99.90;;;;;;4971845;28;20198;-69
2023/04/21 10:18:23;;;;;;;11.30;9.43;;;20.20;99.90;;;;;;4970871;28;20541;-70
2023/04/21 10:21:11;;;;;;;11.17;10.37;;;20.30;99.90;;;;;;4972333;28;20189;-70
2023/04/21 10:23:38;;;;;;;9.57;8.57;;;20.30;99.90;;;;;;4983146;28;20287;-70
2023/04/21 10:26:08;;;;;;;9.20;8.50;;;20.90;99.90;;;;;;4991666;28;20614;-70
2023/04/21 10:28:51;;;;;;;14.30;13.23;;;20.90;99.90;;;;;;5487206;23;20214;-69
2023/04/21 10:31:33;;;;;;;13.23;12.33;;;20.30;99.90;;;;;;4961039;28;20539;-70
2023/04/21 10:34:07;;;;;;;11.80;10.90;;;20.10;99.90;;;;;;4969186;28;20180;-70
2023/04/21 10:36:42;;;;;;;12.00;11.07;;;20.60;99.90;;;;;;4953474;28;20538;-70
2023/04/21 10:39:11;;;;;;;12.93;12.03;;;20.20;99.90;;;;;;4948772;29;20186;-70
2023/04/21 10:41:37;;;;;;;10.37;9.47;;;19.90;99.90;;;;;;4945608;29;20320;-70
2023/04/21 10:44:08;;;;;;;12.70;11.80;;;20.20;99.90;;;;;;4988111;23;20735;-67
2023/04/21 10:46:36;;;;;;;15.10;14.00;;;20.80;99.90;;;;;;4970427;28;20698;-69
2023/04/21 10:49:23;;;;;;;13.03;11.93;;;21.40;99.90;;;;;;4970960;28;20208;-68
2023/04/21 10:54:25;;;;;;;15.07;13.87;;;20.50;99.90;;;;;;4974035;28;20239;-69
2023/04/21 10:56:53;;;;;;;12.37;11.57;;;20.10;99.90;;;;;;4971748;28;20177;-68
2023/04/21 10:59:20;;;;;;;13.43;12.23;;;20.40;99.90;;;;;;5473900;23;20225;-68
2023/04/21 11:01:45;;;;;;;13.70;12.80;;;20.90;99.90;;;;;;4982854;28;20263;-68
2023/04/21 11:04:15;;;;;;;11.13;10.33;;;21.50;99.90;;;;;;4975441;28;20347;-67
2023/04/21 11:06:41;;;;;;;9.30;8.70;;;22.00;98.80;;;;;;4970766;28;20181;-68
2023/04/21 11:09:08;;;;;;;9.77;8.98;;;21.70;97.90;;;;;;4971209;28;20216;-70
2023/04/21 11:11:35;;;;;;;9.73;8.77;;;22.10;98.60;;;;;;4960808;28;20182;-74
2023/04/21 11:14:02;;;;;;;8.43;7.75;;;22.80;97.90;;;;;;4952787;28;20213;-68
2023/04/21 11:16:28;;;;;;;7.63;7.03;;;22.70;95.80;;;;;;4951920;29;20244;-69
2023/04/21 11:18:55;;;;;;;8.95;8.35;;;22.40;95.90;;;;;;4951423;29;20669;-67
2023/04/21 11:21:23;;;;;;;8.50;7.80;;;22.40;96.70;;;;;;4959502;28;20773;-71
2023/04/21 11:23:50;;;;;;;9.00;8.40;;;22.30;95.50;;;;;;4970177;28;20255;-71
2023/04/21 11:26:16;;;;;;;8.25;7.53;;;22.40;95.90;;;;;;4971988;28;20212;-70
2023/04/21 11:28:46;;;;;;;9.35;8.45;;;22.70;95.20;;;;;;4952005;29;20193;-69
2023/04/21 11:31:12;;;;;;;9.35;8.48;;;22.30;95.70;;;;;;4958253;28;20186;-69
2023/04/21 11:33:38;;;;;;;10.98;10.10;;;22.30;95.50;;;;;;4971714;28;20205;-69
2023/04/21 11:36:07;;;;;;;9.45;8.75;;;22.40;95.30;;;;;;4972375;28;20603;-71
2023/04/21 11:38:42;;;;;;;7.97;7.45;;;22.80;94.40;;;;;;4971328;28;20204;-71
2023/04/21 11:41:09;;;;;;;8.60;7.90;;;22.90;93.60;;;;;;4940710;28;20817;-71
2023/04/21 11:43:36;;;;;;;8.45;7.75;;;22.90;93.50;;;;;;4952708;28;20205;-69
2023/04/21 11:46:32;;;;;;;9.32;8.63;;;22.80;94.90;;;;;;4952566;28;20193;-70
2023/04/21 11:49:06;;;;;;;9.05;8.35;;;23.10;93.70;;;;;;4930581;28;20209;-70
2023/04/21 11:51:41;;;;;;;7.18;6.63;;;24.00;91.80;;;;;;4961425;28;20220;-70
2023/04/21 11:54:12;;;;;;;7.82;7.18;;;24.30;90.90;;;;;;4971312;28;20267;-71
2023/04/21 11:56:44;;;;;;;8.45;7.80;;;23.80;91.70;;;;;;4974653;28;20180;-74
2023/04/21 11:59:12;;;;;;;8.38;7.78;;;23.60;92.30;;;;;;4974909;28;20200;-70
2023/04/21 12:01:46;;;;;;;43.28;40.92;;;23.90;91.80;;;;;;4964386;28;20196;-70
2023/04/21 12:04:20;;;;;;;36.22;34.15;;;24.70;89.90;;;;;;4955655;28;20217;-70
2023/04/21 12:07:00;;;;;;;72.90;69.15;;;24.70;87.80;;;;;;4955531;28;20196;-70
2023/04/21 12:09:27;;;;;;;92.90;88.20;;;25.10;88.00;;;;;;4955205;28;20220;-70
2023/04/21 12:11:56;;;;;;;88.47;84.00;;;25.30;86.70;;;;;;4966565;28;20215;-70
2023/04/21 12:14:23;;;;;;;99.20;94.35;;;24.90;85.10;;;;;;4974697;28;20205;-71
2023/04/21 12:16:54;;;;;;;89.63;85.20;;;24.90;85.30;;;;;;4975268;28;20199;-69
2023/04/21 12:19:40;;;;;;;88.07;83.75;;;24.80;84.80;;;;;;4975034;28;20185;-70
2023/04/21 12:22:22;;;;;;;68.70;65.10;;;24.80;84.60;;;;;;4960943;28;20281;-70
2023/04/21 12:24:48;;;;;;;102.50;97.47;;;25.00;82.20;;;;;;4956541;28;20244;-70
2023/04/21 12:27:14;;;;;;;81.28;77.18;;;25.10;84.60;;;;;;4955200;28;20586;-71
2023/04/21 12:29:40;;;;;;;95.90;91.00;;;25.00;82.80;;;;;;4956073;29;20803;-70
2023/04/21 12:32:07;;;;;;;71.28;67.50;;;25.10;83.90;;;;;;4967201;28;20388;-70
2023/04/21 12:34:34;;;;;;;58.20;55.10;;;24.90;81.50;;;;;;4974179;28;20253;-68
2023/04/21 12:37:00;;;;;;;94.22;89.40;;;25.20;81.20;;;;;;4974067;28;20173;-70
2023/04/21 12:39:26;;;;;;;50.10;47.50;;;25.00;83.20;;;;;;4973028;28;20528;-70
2023/04/21 12:41:51;;;;;;;24.52;23.23;;;25.40;79.50;;;;;;4965797;28;20272;-69
2023/04/21 12:44:17;;;;;;;29.45;27.83;;;25.70;77.40;;;;;;4974190;28;20263;-69
2023/04/21 12:49:25;;;;;;;14.88;13.93;;;26.20;77.20;;;;;;5277355;23;20282;-70
2023/04/21 12:51:50;;;;;;;7.38;6.93;;;26.70;76.10;;;;;;4992265;28;20177;-70
2023/04/21 12:54:16;;;;;;;7.13;6.72;;;26.90;73.80;;;;;;4990908;28;20240;-70
2023/04/21 12:56:42;;;;;;;8.38;7.88;;;26.70;74.20;;;;;;4993766;28;20671;-69
2023/04/21 12:59:09;;;;;;;7.88;7.38;;;26.30;74.50;;;;;;4992943;28;20181;-69
2023/04/21 13:01:36;;;;;;;6.55;6.05;;;26.30;74.00;;;;;;5001435;23;20675;-71
2023/04/21 13:04:03;;;;;;;6.13;5.68;;;26.80;71.80;;;;;;4993577;28;20177;-71
2023/04/21 13:06:30;;;;;;;7.72;7.22;;;26.70;71.60;;;;;;4992823;28;20185;-69
2023/04/21 13:08:56;;;;;;;8.98;8.45;;;25.90;73.10;;;;;;4992289;28;20208;-71
2023/04/21 13:11:22;;;;;;;8.75;8.23;;;26.20;73.40;;;;;;4992499;28;20220;-69
2023/04/21 13:13:47;;;;;;;8.40;7.90;;;26.70;73.40;;;;;;4994066;28;20690;-69
2023/04/21 13:16:14;;;;;;;7.82;7.32;;;26.50;72.60;;;;;;4977999;28;20239;-71
2023/04/21 13:18:40;;;;;;;6.25;5.85;;;26.20;70.90;;;;;;4972475;28;20223;-71
2023/04/21 13:21:06;;;;;;;7.55;7.05;;;26.80;70.80;;;;;;4983915;28;20215;-71
2023/04/21 13:23:32;;;;;;;8.15;7.55;;;27.10;71.80;;;;;;4973761;28;20185;-71
2023/04/21 13:25:58;;;;;;;7.15;6.63;;;27.60;71.20;;;;;;4975135;28;20189;-70
2023/04/21 13:28:25;;;;;;;5.20;4.80;;;28.20;71.60;;;;;;4970122;28;20599;-69
2023/04/21 13:30:52;;;;;;;5.63;5.13;;;29.10;66.40;;;;;;4984318;28;20176;-69
2023/04/21 13:33:18;;;;;;;5.70;5.30;;;28.50;69.00;;;;;;4991389;28;20203;-70
2023/04/21 13:35:44;;;;;;;6.38;5.97;;;27.40;68.10;;;;;;4992458;28;20741;-70
2023/04/21 13:38:11;;;;;;;6.22;5.78;;;27.40;67.70;;;;;;4992052;28;20259;-70
2023/04/21 13:40:37;;;;;;;5.10;4.80;;;28.30;66.80;;;;;;4981310;28;20712;-70
2023/04/21 13:43:02;;;;;;;5.32;4.95;;;28.50;61.80;;;;;;4986906;28;20208;-71
2023/04/21 13:45:28;;;;;;;5.35;4.95;;;27.90;63.00;;;;;;4991665;28;20563;-70
2023/04/21 13:47:54;;;;;;;5.00;4.60;;;28.10;64.00;;;;;;4992706;28;20641;-70
2023/04/21 13:50:20;;;;;;;5.10;4.70;;;28.20;62.80;;;;;;4993021;28;20223;-70
2023/04/21 13:52:46;;;;;;;4.85;4.55;;;27.70;64.00;;;;;;4981415;28;20677;-70
2023/04/21 13:55:12;;;;;;;5.20;4.88;;;28.10;63.00;;;;;;4973422;28;20272;-70
2023/04/21 13:57:37;;;;;;;5.03;4.63;;;28.50;62.30;;;;;;4973215;28;20548;-71
2023/04/21 14:00:10;;;;;;;6.15;5.70;;;28.10;62.70;;;;;;4973407;28;20188;-70
2023/04/21 14:02:38;;;;;;;4.75;4.40;;;27.90;60.90;;;;;;4981499;28;20226;-70
2023/04/21 14:05:04;;;;;;;4.00;3.67;;;27.50;61.60;;;;;;4992325;28;20184;-70
2023/04/21 14:07:30;;;;;;;4.50;4.22;;;26.90;61.20;;;;;;4992470;28;20211;-70
2023/04/21 14:09:56;;;;;;;4.32;4.13;;;26.80;62.00;;;;;;4992308;28;20216;-71
2023/04/21 14:12:24;;;;;;;4.50;4.30;;;27.80;60.20;;;;;;4984225;28;20201;-71
2023/04/21 14:14:50;;;;;;;4.32;4.03;;;28.50;58.80;;;;;;4971502;28;20287;-71
2023/04/21 14:17:16;;;;;;;4.47;4.25;;;27.80;59.70;;;;;;4972534;28;20193;-70
2023/04/21 14:19:42;;;;;;;4.82;4.53;;;27.60;59.50;;;;;;4973500;28;20215;-70
2023/04/21 14:22:08;;;;;;;4.82;4.55;;;27.60;59.60;;;;;;4977322;28;20231;-70
2023/04/21 14:24:34;;;;;;;4.30;4.00;;;27.60;59.80;;;;;;4992701;28;20214;-70
2023/04/21 14:27:00;;;;;;;4.68;4.40;;;27.60;60.50;;;;;;4991861;28;20188;-70
2023/04/21 14:29:25;;;;;;;4.35;4.05;;;27.90;59.40;;;;;;4992196;28;20211;-70
2023/04/21 14:31:56;;;;;;;4.20;3.90;;;27.20;59.60;;;;;;4988268;28;20624;-70
2023/04/21 14:34:25;;;;;;;5.30;5.00;;;27.70;59.50;;;;;;4972914;28;20191;-70
2023/04/21 14:36:51;;;;;;;5.22;4.80;;;27.90;57.90;;;;;;4972651;28;20188;-70
2023/04/21 14:39:17;;;;;;;5.50;5.20;;;28.00;59.00;;;;;;4972773;28;20185;-69
2023/04/21 14:41:43;;;;;;;9.00;3.92;;;27.50;59.20;;;;;;4974389;28;20744;-71
2023/04/21 14:44:09;;;;;;;3.95;3.75;;;27.10;60.00;;;;;;4992471;28;20200;-71
2023/04/21 14:46:35;;;;;;;5.00;4.70;;;27.50;58.80;;;;;;4990990;28;20258;-70
2023/04/21 14:49:02;;;;;;;4.80;4.30;;;27.00;59.40;;;;;;4991335;28;20822;-70
2023/04/21 14:51:27;;;;;;;4.57;4.38;;;27.20;58.20;;;;;;4991455;28;20192;-70
2023/04/21 14:53:53;;;;;;;4.00;3.80;;;26.60;58.10;;;;;;4967949;28;20200;-70
2023/04/21 14:56:19;;;;;;;4.47;4.18;;;26.60;57.70;;;;;;4974400;28;20846;-71
2023/04/21 14:58:45;;;;;;;4.05;3.85;;;26.90;58.10;;;;;;4990588;28;20188;-70
2023/04/21 15:01:11;;;;;;;4.93;4.63;;;26.70;58.80;;;;;;4979048;28;20185;-71
2023/04/21 15:03:37;;;;;;;5.50;4.38;;;26.90;59.40;;;;;;4971304;28;20199;-70
2023/04/21 15:06:03;;;;;;;4.75;4.28;;;27.10;60.00;;;;;;4972256;28;20176;-70
2023/04/21 15:08:29;;;;;;;5.10;4.78;;;27.40;59.60;;;;;;4971989;28;20525;-70
2023/04/21 15:10:55;;;;;;;4.25;4.00;;;26.90;60.00;;;;;;4972202;28;20181;-70
2023/04/21 15:13:21;;;;;;;4.70;4.30;;;26.20;60.60;;;;;;4985681;28;20537;-70
2023/04/21 15:15:48;;;;;;;9.98;4.13;;;26.10;62.00;;;;;;4990453;28;20180;-70
2023/04/21 15:18:14;;;;;;;4.25;4.05;;;26.20;61.60;;;;;;4993457;28;20246;-70
2023/04/21 15:20:41;;;;;;;4.45;4.10;;;25.70;60.00;;;;;;4975895;28;20180;-70
2023/04/21 15:23:07;;;;;;;4.30;4.10;;;25.20;61.30;;;;;;4978719;28;20208;-70
2023/04/21 15:25:35;;;;;;;4.38;4.18;;;25.30;59.80;;;;;;4989372;28;20184;-70
2023/04/21 15:28:01;;;;;;;4.25;4.05;;;25.10;61.40;;;;;;4971878;28;20184;-70
2023/04/21 15:30:26;;;;;;;3.92;3.72;;;26.00;60.20;;;;;;4975556;28;20612;-70
2023/04/21 15:32:52;;;;;;;4.32;4.13;;;25.70;60.60;;;;;;4986376;28;20211;-70
2023/04/21 15:35:18;;;;;;;4.75;4.45;;;25.30;62.90;;;;;;5484409;23;20279;-70
2023/04/21 15:37:44;;;;;;;4.80;4.55;;;25.40;61.90;;;;;;4983475;28;20671;-70
2023/04/21 15:40:10;;;;;;;4.38;4.07;;;25.70;62.30;;;;;;4975612;28;20192;-70
2023/04/21 15:42:35;;;;;;;5.07;4.78;;;25.70;61.60;;;;;;4975385;28;20285;-71
2023/04/21 15:45:02;;;;;;;5.38;5.07;;;25.80;62.00;;;;;;4976490;28;20185;-70
2023/04/21 15:47:29;;;;;;;5.28;4.97;;;25.30;62.70;;;;;;4967174;28;20186;-70
2023/04/21 15:49:54;;;;;;;6.72;6.32;;;24.30;64.60;;;;;;5006758;23;20287;-67
2023/04/21 15:52:20;;;;;;;7.53;7.13;;;23.70;67.10;;;;;;4994819;28;20180;-70